Time;durP1;ratioP1;P1;durP2;ratioP2;P2;SDS_P1;SDS_P2;PMS_P1;PMS_P2;Temp;Humidity;BMP_temperature;BMP_pressure;BME280_temperature;BME280_humidity;BME280_pressure;Samples;Min_cycle;Max_cycle;Signal;HPM_P1;HPM_P2
2022/08/10 00:00:25;;;;;;;4.10;2.77;;;23.80;53.10;;;;;;5053910;28;20496;-56
2022/08/10 00:02:55;;;;;;;4.93;2.83;;;23.80;53.80;;;;;;5054121;28;20544;-56
2022/08/10 00:05:24;;;;;;;7.33;3.67;;;23.80;53.40;;;;;;5053692;28;20441;-56
2022/08/10 00:07:52;;;;;;;3.00;2.70;;;23.80;53.60;;;;;;5053855;28;20449;-56
2022/08/10 00:10:22;;;;;;;3.03;2.80;;;23.70;53.20;;;;;;5053494;28;20924;-56
2022/08/10 00:12:50;;;;;;;3.20;2.90;;;23.70;53.40;;;;;;5053912;28;20802;-56
2022/08/10 00:15:19;;;;;;;3.30;3.00;;;23.70;53.60;;;;;;5054029;28;20535;-56
2022/08/10 00:17:46;;;;;;;2.90;2.60;;;23.70;53.40;;;;;;5053802;28;20952;-56
2022/08/10 00:20:14;;;;;;;3.20;2.90;;;23.70;53.70;;;;;;5053535;28;20556;-56
2022/08/10 00:22:42;;;;;;;4.43;3.00;;;23.60;54.10;;;;;;5053974;28;20477;-57
2022/08/10 00:25:10;;;;;;;5.03;3.30;;;23.60;53.70;;;;;;5053750;28;20845;-57
2022/08/10 00:27:37;;;;;;;5.30;3.03;;;23.50;54.20;;;;;;5053425;28;20452;-56
2022/08/10 00:30:05;;;;;;;12.03;3.50;;;23.50;53.90;;;;;;5053396;28;20469;-56
2022/08/10 00:32:32;;;;;;;3.50;3.20;;;23.40;54.40;;;;;;5053364;28;20930;-56
2022/08/10 00:34:59;;;;;;;3.40;3.10;;;23.40;54.30;;;;;;5053277;28;20449;-56
2022/08/10 00:37:26;;;;;;;3.20;2.90;;;23.40;54.50;;;;;;5053141;28;20968;-57
2022/08/10 00:39:54;;;;;;;3.23;2.93;;;23.40;54.50;;;;;;5053538;28;20458;-56
2022/08/10 00:42:21;;;;;;;2.90;2.70;;;23.40;54.60;;;;;;5053603;28;20488;-56
2022/08/10 00:44:49;;;;;;;4.63;3.20;;;23.30;54.40;;;;;;5053557;28;20453;-56
2022/08/10 00:47:18;;;;;;;4.20;3.43;;;23.30;54.60;;;;;;5053076;28;20531;-56
2022/08/10 00:49:45;;;;;;;8.13;3.43;;;23.40;54.70;;;;;;5053063;28;20952;-56
2022/08/10 00:52:13;;;;;;;3.80;2.80;;;23.30;54.80;;;;;;5053059;28;20441;-56
2022/08/10 00:54:44;;;;;;;3.67;3.33;;;23.20;54.90;;;;;;5053563;28;20449;-57
2022/08/10 00:57:13;;;;;;;3.57;3.27;;;23.20;55.10;;;;;;5053326;28;20425;-57
2022/08/10 00:59:41;;;;;;;3.20;2.90;;;23.20;54.80;;;;;;5052700;28;20445;-56
2022/08/10 01:02:08;;;;;;;3.60;3.30;;;23.20;55.40;;;;;;5052969;28;20514;-56
2022/08/10 01:04:36;;;;;;;5.63;3.10;;;23.20;55.10;;;;;;5052981;28;20860;-56
2022/08/10 01:07:20;;;;;;;4.07;2.93;;;23.10;55.40;;;;;;5052422;28;20451;-56
2022/08/10 01:09:59;;;;;;;4.30;3.20;;;23.10;55.30;;;;;;5052880;28;20457;-56
2022/08/10 01:12:34;;;;;;;3.67;3.37;;;23.10;55.50;;;;;;5053163;28;20484;-57
2022/08/10 01:15:09;;;;;;;2.97;2.77;;;23.10;55.50;;;;;;5052758;28;20869;-56
2022/08/10 01:17:43;;;;;;;3.83;3.40;;;;;;;;;;5053255;28;20428;-57
2022/08/10 01:20:21;;;;;;;7.20;2.93;;;23.00;55.50;;;;;;5053117;28;20465;-57
2022/08/10 01:23:09;;;;;;;3.17;2.90;;;23.00;56.00;;;;;;5052664;28;20472;-56
2022/08/10 01:26:04;;;;;;;4.73;3.20;;;23.10;55.70;;;;;;5052968;28;20430;-56
2022/08/10 01:28:45;;;;;;;6.90;3.33;;;23.00;55.60;;;;;;5052716;28;20767;-56
2022/08/10 01:31:24;;;;;;;2.90;2.70;;;23.10;55.50;;;;;;5052860;28;20461;-56
2022/08/10 01:33:56;;;;;;;3.47;3.17;;;22.70;56.20;;;;;;5052579;28;20425;-57
2022/08/10 01:36:28;;;;;;;3.90;2.90;;;22.50;56.50;;;;;;5052614;28;20426;-56
2022/08/10 01:38:59;;;;;;;3.90;3.07;;;22.50;56.80;;;;;;5052584;28;20437;-56
2022/08/10 01:41:31;;;;;;;3.03;2.73;;;22.40;56.90;;;;;;5052950;28;20485;-57
2022/08/10 01:44:01;;;;;;;5.00;3.80;;;22.10;57.20;;;;;;5052537;28;20441;-57
2022/08/10 01:46:32;;;;;;;7.03;3.00;;;22.20;57.50;;;;;;5052565;28;20489;-56
2022/08/10 01:48:59;;;;;;;3.60;3.20;;;21.90;57.60;;;;;;5052711;28;20449;-56
2022/08/10 01:51:31;;;;;;;4.40;3.53;;;21.80;57.90;;;;;;5052494;28;20827;-57
2022/08/10 01:54:02;;;;;;;4.30;3.77;;;21.80;58.00;;;;;;5052501;28;20437;-57
2022/08/10 01:56:33;;;;;;;3.47;3.17;;;21.70;58.10;;;;;;5052564;28;20418;-56
2022/08/10 01:59:04;;;;;;;3.37;3.10;;;21.80;58.40;;;;;;5052739;28;20483;-57
2022/08/10 02:01:39;;;;;;;3.40;3.10;;;21.90;58.50;;;;;;5052282;28;20985;-56
2022/08/10 02:04:10;;;;;;;6.37;3.27;;;21.80;58.40;;;;;;5052344;28;20897;-56
2022/08/10 02:06:40;;;;;;;5.60;3.77;;;21.80;58.90;;;;;;5052346;28;20512;-56
2022/08/10 02:09:09;;;;;;;3.93;3.07;;;21.90;58.90;;;;;;5052151;28;20487;-56
2022/08/10 02:11:36;;;;;;;3.00;2.77;;;21.80;59.00;;;;;;5052616;28;20461;-56
2022/08/10 02:14:05;;;;;;;3.33;3.03;;;21.60;59.10;;;;;;5052520;28;20472;-56
2022/08/10 02:16:36;;;;;;;3.50;3.20;;;21.40;59.50;;;;;;5052339;28;20433;-56
2022/08/10 02:19:05;;;;;;;4.70;2.93;;;21.20;59.70;;;;;;5055670;28;20516;-56
2022/08/10 02:21:33;;;;;;;4.00;3.30;;;21.30;60.00;;;;;;5055869;28;20521;-56
2022/08/10 02:24:01;;;;;;;3.20;2.87;;;21.40;60.00;;;;;;5055680;28;20449;-57
2022/08/10 02:26:29;;;;;;;3.57;3.27;;;21.50;59.80;;;;;;5055747;28;20536;-56
2022/08/10 02:28:57;;;;;;;5.90;3.20;;;21.60;60.20;;;;;;5055780;28;20451;-56
2022/08/10 02:31:26;;;;;;;3.40;3.10;;;21.30;60.20;;;;;;5055750;28;20831;-56
2022/08/10 02:33:57;;;;;;;4.13;2.90;;;21.20;60.80;;;;;;5055833;28;20452;-57
2022/08/10 02:36:27;;;;;;;7.67;3.40;;;21.20;61.10;;;;;;5055688;28;20444;-56
2022/08/10 02:38:58;;;;;;;3.13;2.83;;;21.20;61.70;;;;;;5055968;28;20516;-57
2022/08/10 02:41:31;;;;;;;3.47;3.17;;;21.30;61.50;;;;;;5055713;28;20501;-56
2022/08/10 02:44:05;;;;;;;5.83;2.53;;;21.20;61.60;;;;;;5055669;28;20430;-62
2022/08/10 02:46:39;;;;;;;3.53;2.90;;;21.20;61.80;;;;;;5055240;28;20527;-56
2022/08/10 02:49:12;;;;;;;4.03;3.63;;;21.10;61.70;;;;;;5055565;28;20448;-57
2022/08/10 02:51:45;;;;;;;3.80;3.37;;;21.20;62.00;;;;;;5055523;28;20461;-56
2022/08/10 02:54:17;;;;;;;3.60;3.30;;;21.10;62.20;;;;;;5055672;28;20525;-57
2022/08/10 02:56:53;;;;;;;3.70;3.30;;;21.00;62.20;;;;;;5055238;28;20877;-56
2022/08/10 02:59:24;;;;;;;3.40;3.20;;;21.00;62.50;;;;;;5055354;28;20496;-56
2022/08/10 03:01:55;;;;;;;3.10;2.90;;;21.00;63.20;;;;;;5054796;28;20888;-57
2022/08/10 03:04:26;;;;;;;4.53;3.27;;;;;;;;;;5055056;28;20432;-56
2022/08/10 03:06:58;;;;;;;4.80;3.27;;;20.80;63.50;;;;;;5054944;28;20437;-57
2022/08/10 03:09:27;;;;;;;3.60;3.13;;;20.80;63.70;;;;;;5055441;28;20476;-56
2022/08/10 03:11:55;;;;;;;3.90;3.13;;;20.70;64.20;;;;;;5054846;28;20572;-56
2022/08/10 03:14:23;;;;;;;4.70;3.33;;;20.80;64.50;;;;;;5055151;28;20846;-57
2022/08/10 03:16:51;;;;;;;3.40;3.10;;;20.90;64.60;;;;;;5055239;28;20867;-56
2022/08/10 03:19:21;;;;;;;3.40;3.07;;;20.90;64.10;;;;;;5054769;28;20816;-56
2022/08/10 03:21:51;;;;;;;3.83;3.27;;;20.60;64.70;;;;;;5054776;28;20492;-56
2022/08/10 03:24:21;;;;;;;3.20;2.90;;;20.40;65.20;;;;;;5054638;28;20430;-56
2022/08/10 03:26:49;;;;;;;5.30;3.43;;;20.40;65.70;;;;;;5054611;28;20452;-56
2022/08/10 03:29:18;;;;;;;6.90;3.60;;;20.60;65.70;;;;;;5054018;28;20540;-57
2022/08/10 03:31:46;;;;;;;3.60;3.30;;;20.60;65.90;;;;;;5054577;28;20804;-56
2022/08/10 03:34:15;;;;;;;3.50;3.20;;;20.70;65.50;;;;;;5054865;28;20476;-57
2022/08/10 03:36:42;;;;;;;6.03;3.33;;;20.80;65.20;;;;;;5054733;28;20485;-56
2022/08/10 03:39:11;;;;;;;3.47;3.17;;;20.80;65.30;;;;;;5054693;28;20541;-56
2022/08/10 03:41:42;;;;;;;4.40;3.50;;;20.60;65.80;;;;;;5054228;28;21043;-57
2022/08/10 03:44:12;;;;;;;3.87;3.57;;;20.40;66.70;;;;;;5054803;28;20436;-57
2022/08/10 03:46:45;;;;;;;4.03;3.73;;;20.50;66.70;;;;;;5054346;28;20487;-56
2022/08/10 03:49:14;;;;;;;3.73;3.53;;;20.60;66.90;;;;;;5054113;28;20947;-56
2022/08/10 03:51:44;;;;;;;6.20;3.57;;;20.60;67.30;;;;;;5054511;28;20469;-57
2022/08/10 03:54:13;;;;;;;4.37;3.70;;;20.60;66.80;;;;;;5054211;28;20449;-56
2022/08/10 03:56:41;;;;;;;3.30;3.10;;;20.60;67.30;;;;;;5054019;28;20492;-57
2022/08/10 03:59:10;;;;;;;4.20;3.50;;;20.50;67.10;;;;;;5053951;28;20536;-56
2022/08/10 04:01:38;;;;;;;4.23;3.83;;;20.50;67.70;;;;;;5054152;28;20556;-56
2022/08/10 04:04:05;;;;;;;3.67;3.37;;;20.50;67.60;;;;;;5053801;28;20444;-56
2022/08/10 04:06:32;;;;;;;3.43;3.13;;;20.60;68.00;;;;;;5054012;28;20449;-56
2022/08/10 04:08:59;;;;;;;3.93;3.63;;;20.50;67.50;;;;;;5053737;28;20854;-56
2022/08/10 04:11:28;;;;;;;3.50;3.20;;;20.20;68.70;;;;;;5053638;28;20484;-56
2022/08/10 04:13:55;;;;;;;6.23;3.47;;;20.00;69.70;;;;;;5053588;28;20441;-56
2022/08/10 04:16:22;;;;;;;5.00;3.40;;;20.00;69.70;;;;;;5053962;28;20453;-56
2022/08/10 04:18:49;;;;;;;3.73;3.30;;;20.00;70.00;;;;;;5053454;28;20452;-56
2022/08/10 04:21:23;;;;;;;4.23;3.50;;;19.90;70.30;;;;;;5053405;28;20465;-57
2022/08/10 04:23:51;;;;;;;3.93;3.63;;;20.00;70.50;;;;;;5053558;28;20552;-57
2022/08/10 04:26:19;;;;;;;4.07;3.10;;;20.00;70.50;;;;;;5053621;28;20949;-56
2022/08/10 04:28:48;;;;;;;4.43;3.37;;;19.90;69.60;;;;;;5053334;28;20453;-57
2022/08/10 04:31:17;;;;;;;4.60;3.37;;;19.90;70.00;;;;;;5053449;28;20469;-57
2022/08/10 04:33:49;;;;;;;3.87;3.50;;;19.90;70.20;;;;;;5053323;28;20449;-57
2022/08/10 04:36:18;;;;;;;4.43;3.60;;;19.90;70.90;;;;;;5053685;28;20455;-57
2022/08/10 04:38:46;;;;;;;4.30;3.90;;;19.80;70.90;;;;;;5053145;28;20445;-56
2022/08/10 04:41:13;;;;;;;4.10;3.70;;;19.90;71.50;;;;;;5052733;28;20477;-56
2022/08/10 04:43:41;;;;;;;3.53;3.23;;;19.80;71.70;;;;;;5053093;28;20492;-57
2022/08/10 04:46:09;;;;;;;4.10;3.80;;;19.90;71.90;;;;;;5053305;28;20544;-57
2022/08/10 04:48:36;;;;;;;4.53;3.57;;;20.00;72.00;;;;;;5053019;28;20452;-56
2022/08/10 04:51:04;;;;;;;3.73;3.30;;;19.90;71.50;;;;;;5053309;28;20457;-57
2022/08/10 04:53:32;;;;;;;3.80;3.50;;;20.00;72.00;;;;;;5053194;28;20453;-57
2022/08/10 04:55:59;;;;;;;3.50;3.20;;;20.10;71.50;;;;;;5052919;28;20445;-57
2022/08/10 04:58:26;;;;;;;4.37;3.40;;;20.10;71.50;;;;;;5053356;28;20452;-57
2022/08/10 05:00:53;;;;;;;4.10;3.63;;;19.90;72.30;;;;;;5052659;28;20473;-56
2022/08/10 05:03:22;;;;;;;5.47;3.30;;;19.90;73.20;;;;;;5053024;28;20908;-57
2022/08/10 05:05:49;;;;;;;24.27;4.93;;;19.90;73.50;;;;;;5053282;28;20532;-56
2022/08/10 05:08:16;;;;;;;3.87;3.57;;;19.90;74.20;;;;;;5053080;28;20452;-56
2022/08/10 05:10:43;;;;;;;10.93;3.10;;;20.10;72.90;;;;;;5053194;28;20999;-56
2022/08/10 05:13:11;;;;;;;7.70;3.57;;;20.30;72.90;;;;;;5052815;28;20895;-57
2022/08/10 05:15:40;;;;;;;5.13;3.40;;;20.30;73.80;;;;;;5052876;28;20545;-56
2022/08/10 05:18:07;;;;;;;4.10;3.80;;;20.60;71.90;;;;;;5052632;28;20536;-56
2022/08/10 05:20:35;;;;;;;4.80;3.57;;;20.50;72.60;;;;;;5053046;28;20473;-56
2022/08/10 05:23:03;;;;;;;4.23;3.83;;;20.40;73.10;;;;;;5052620;28;20476;-57
2022/08/10 05:25:30;;;;;;;5.70;3.97;;;20.40;73.10;;;;;;5052534;28;20961;-57
2022/08/10 05:27:58;;;;;;;4.50;4.10;;;20.40;73.60;;;;;;5052912;28;20453;-56
2022/08/10 05:30:25;;;;;;;3.87;3.30;;;20.60;73.50;;;;;;5052860;28;20536;-56
2022/08/10 05:32:52;;;;;;;4.30;3.60;;;20.50;72.50;;;;;;5052515;28;20457;-57
2022/08/10 05:35:20;;;;;;;4.30;3.90;;;20.60;73.70;;;;;;5052602;28;20484;-57
2022/08/10 05:37:51;;;;;;;4.40;3.93;;;20.60;73.60;;;;;;5052549;28;20934;-56
2022/08/10 05:40:19;;;;;;;4.07;3.53;;;20.70;71.80;;;;;;5052640;28;20536;-56
2022/08/10 05:42:46;;;;;;;4.43;3.57;;;20.80;71.80;;;;;;5052180;28;20568;-57
2022/08/10 05:45:20;;;;;;;5.63;3.50;;;20.80;71.60;;;;;;5052341;28;20507;-56
2022/08/10 05:47:48;;;;;;;3.83;3.30;;;21.00;70.30;;;;;;5052205;28;20468;-56
2022/08/10 05:50:17;;;;;;;7.53;3.50;;;21.10;68.20;;;;;;5052411;28;20867;-56
2022/08/10 05:52:44;;;;;;;3.10;2.80;;;21.30;68.10;;;;;;5053447;28;20429;-56
2022/08/10 05:55:13;;;;;;;3.70;3.07;;;21.40;68.00;;;;;;5056347;28;20452;-57
2022/08/10 05:57:41;;;;;;;3.20;3.00;;;21.40;68.10;;;;;;5056248;28;20489;-56
2022/08/10 06:00:11;;;;;;;4.40;3.23;;;21.60;66.50;;;;;;5055693;28;20469;-57
2022/08/10 06:02:41;;;;;;;4.60;3.23;;;21.50;65.60;;;;;;5056575;28;20484;-56
2022/08/10 06:05:10;;;;;;;3.80;3.50;;;21.60;66.40;;;;;;5055848;28;20453;-57
2022/08/10 06:07:44;;;;;;;3.83;3.53;;;21.50;65.80;;;;;;5055674;28;20456;-56
2022/08/10 06:10:16;;;;;;;4.33;3.47;;;21.70;65.70;;;;;;5055869;28;20469;-56
2022/08/10 06:12:45;;;;;;;5.30;3.33;;;21.70;65.60;;;;;;5056289;28;20445;-56
2022/08/10 06:15:11;;;;;;;7.17;3.00;;;21.80;66.10;;;;;;5055312;28;20452;-57
2022/08/10 06:17:39;;;;;;;3.97;3.60;;;21.90;65.70;;;;;;5055566;28;20452;-56
2022/08/10 06:20:08;;;;;;;4.67;3.37;;;21.90;65.00;;;;;;5055882;28;20469;-57
2022/08/10 06:22:35;;;;;;;3.90;3.13;;;21.90;65.80;;;;;;5055608;28;20453;-56
2022/08/10 06:25:03;;;;;;;4.37;3.40;;;21.90;65.40;;;;;;5055487;28;20452;-56
2022/08/10 06:27:32;;;;;;;8.00;3.23;;;22.00;65.30;;;;;;5055570;28;20445;-56
2022/08/10 06:30:01;;;;;;;9.20;3.50;;;22.20;65.10;;;;;;5055085;28;20473;-56
2022/08/10 06:32:30;;;;;;;3.70;3.23;;;22.20;64.60;;;;;;5054951;28;20453;-57
2022/08/10 06:35:00;;;;;;;3.23;2.93;;;22.30;63.50;;;;;;5055252;28;20967;-57
2022/08/10 06:37:29;;;;;;;3.63;3.33;;;22.30;63.50;;;;;;5055382;28;20451;-57
2022/08/10 06:39:56;;;;;;;4.83;3.10;;;22.20;63.30;;;;;;5054897;28;20921;-56
2022/08/10 06:42:31;;;;;;;3.33;3.00;;;22.30;63.10;;;;;;5054958;28;20496;-56
2022/08/10 06:45:04;;;;;;;4.10;3.30;;;22.40;63.20;;;;;;5055384;28;20845;-56
2022/08/10 06:47:46;;;;;;;3.53;3.23;;;22.40;62.50;;;;;;5055108;28;21046;-57
2022/08/10 06:50:16;;;;;;;2.93;2.60;;;22.40;63.20;;;;;;5054810;28;20497;-56
2022/08/10 06:52:46;;;;;;;6.83;3.07;;;22.60;62.10;;;;;;5054745;28;20438;-56
2022/08/10 06:55:15;;;;;;;5.20;3.90;;;22.60;62.50;;;;;;5054631;28;20453;-56
2022/08/10 06:57:44;;;;;;;4.50;2.97;;;22.70;62.80;;;;;;5054801;28;20496;-56
2022/08/10 07:00:14;;;;;;;3.93;3.20;;;22.80;61.70;;;;;;5054677;28;20460;-56
2022/08/10 07:02:51;;;;;;;3.50;3.03;;;22.80;61.50;;;;;;5054485;28;20449;-56
2022/08/10 07:05:22;;;;;;;3.17;2.87;;;22.90;61.50;;;;;;5053524;28;20472;-57
2022/08/10 07:07:52;;;;;;;6.00;3.40;;;22.90;60.50;;;;;;5055196;28;20436;-56
2022/08/10 07:10:23;;;;;;;4.07;2.73;;;23.00;60.80;;;;;;5054440;28;20842;-56
2022/08/10 07:12:55;;;;;;;4.30;2.70;;;23.10;61.40;;;;;;5054435;28;20790;-56
2022/08/10 07:15:25;;;;;;;3.27;3.00;;;23.10;60.50;;;;;;5054516;28;20517;-56
2022/08/10 07:17:54;;;;;;;5.30;3.30;;;23.20;60.40;;;;;;5054385;28;20928;-56
2022/08/10 07:20:22;;;;;;;4.77;2.77;;;23.00;60.30;;;;;;5054075;28;20885;-57
2022/08/10 07:22:52;;;;;;;3.67;3.30;;;23.10;61.20;;;;;;5053847;28;20445;-56
2022/08/10 07:25:23;;;;;;;5.00;3.53;;;23.20;61.00;;;;;;5054036;28;20540;-56
2022/08/10 07:27:52;;;;;;;4.43;3.20;;;23.20;60.10;;;;;;5054452;28;20437;-56
2022/08/10 07:30:19;;;;;;;4.93;2.83;;;23.20;60.20;;;;;;5054216;28;20555;-56
2022/08/10 07:32:50;;;;;;;3.33;2.97;;;23.30;60.50;;;;;;5053984;28;20452;-56
2022/08/10 07:35:20;;;;;;;3.40;3.10;;;23.30;59.90;;;;;;5054238;28;20449;-56
2022/08/10 07:37:48;;;;;;;3.10;2.90;;;23.50;60.60;;;;;;5053866;28;20460;-56
2022/08/10 07:40:17;;;;;;;4.27;3.83;;;23.60;60.80;;;;;;5053877;28;20473;-56
2022/08/10 07:42:47;;;;;;;4.10;3.40;;;23.70;59.70;;;;;;5054095;28;20519;-57
2022/08/10 07:45:14;;;;;;;5.83;3.43;;;23.70;60.00;;;;;;5054269;28;20453;-56
2022/08/10 07:47:46;;;;;;;3.17;2.87;;;23.70;59.70;;;;;;5053595;28;21019;-56
2022/08/10 07:50:17;;;;;;;4.63;2.93;;;23.60;59.70;;;;;;5053909;28;20465;-56
2022/08/10 07:52:45;;;;;;;2.60;2.40;;;23.70;59.30;;;;;;5054207;28;20785;-56
2022/08/10 07:55:18;;;;;;;2.77;2.57;;;23.80;59.30;;;;;;5053881;28;20455;-56
2022/08/10 07:57:49;;;;;;;3.37;3.07;;;24.00;59.20;;;;;;5053647;28;20599;-57
2022/08/10 08:00:18;;;;;;;5.37;2.73;;;24.30;58.90;;;;;;5053472;28;20469;-57
2022/08/10 08:02:49;;;;;;;3.97;3.30;;;24.90;58.60;;;;;;5053893;28;20511;-56
2022/08/10 08:05:22;;;;;;;2.80;2.40;;;25.90;57.10;;;;;;5053576;28;20472;-57
2022/08/10 08:07:51;;;;;;;3.20;2.87;;;26.60;56.50;;;;;;5053779;28;20483;-56
2022/08/10 08:10:22;;;;;;;3.87;2.80;;;27.40;55.80;;;;;;5053841;28;20481;-56
2022/08/10 08:12:50;;;;;;;3.00;2.70;;;27.50;54.60;;;;;;5053631;28;20560;-56
2022/08/10 08:15:20;;;;;;;2.50;2.07;;;27.90;54.50;;;;;;5053435;28;20640;-56
2022/08/10 08:17:49;;;;;;;3.10;2.70;;;28.60;53.50;;;;;;5053576;28;20473;-56
2022/08/10 08:20:19;;;;;;;6.20;2.73;;;28.70;53.00;;;;;;5053767;28;20465;-57
2022/08/10 08:22:48;;;;;;;3.03;2.60;;;28.80;53.10;;;;;;5053783;28;20433;-56
2022/08/10 08:25:17;;;;;;;3.33;2.40;;;28.90;52.70;;;;;;5053070;28;21016;-57
2022/08/10 08:27:51;;;;;;;3.60;2.33;;;29.10;52.50;;;;;;5053206;28;20563;-57
2022/08/10 08:30:20;;;;;;;2.70;2.50;;;29.10;52.20;;;;;;5053217;28;20477;-57
2022/08/10 08:32:48;;;;;;;3.53;2.60;;;29.00;52.40;;;;;;5053296;28;20896;-56
2022/08/10 08:35:18;;;;;;;8.47;2.50;;;28.90;52.10;;;;;;5053040;28;20434;-56
2022/08/10 08:37:48;;;;;;;3.10;2.70;;;28.90;52.20;;;;;;5053131;28;20441;-56
2022/08/10 08:40:21;;;;;;;3.50;2.90;;;28.70;52.30;;;;;;5053650;28;20568;-57
2022/08/10 08:43:16;;;;;;;4.73;2.90;;;;;;;;;;5053046;28;20788;-57
2022/08/10 08:45:58;;;;;;;4.63;2.70;;;29.70;51.10;;;;;;5053110;28;20449;-58
2022/08/10 08:48:59;;;;;;;3.30;2.60;;;29.70;50.80;;;;;;5052785;28;20508;-57
2022/08/10 08:51:34;;;;;;;2.70;2.40;;;29.40;50.90;;;;;;5041773;28;21056;-56
2022/08/10 08:54:15;;;;;;;2.80;2.27;;;29.50;51.10;;;;;;5053093;28;20417;-56
2022/08/10 08:56:49;;;;;;;3.20;2.27;;;30.10;51.10;;;;;;5053257;28;20433;-56
2022/08/10 08:59:28;;;;;;;4.87;2.93;;;30.30;50.50;;;;;;5052764;28;20426;-56
2022/08/10 09:02:08;;;;;;;3.20;2.83;;;30.70;49.70;;;;;;5052913;28;20597;-57
2022/08/10 09:04:56;;;;;;;2.87;2.30;;;30.40;50.00;;;;;;5052620;28;20500;-56
2022/08/10 09:07:51;;;;;;;4.17;2.20;;;30.60;49.30;;;;;;5052863;28;20437;-56
2022/08/10 09:10:30;;;;;;;2.60;2.40;;;31.00;48.90;;;;;;5052814;28;20500;-56
2022/08/10 09:13:04;;;;;;;2.30;2.10;;;31.00;48.40;;;;;;5052926;28;20527;-56
2022/08/10 09:15:38;;;;;;;3.53;2.60;;;30.80;48.10;;;;;;5052284;28;20517;-57
2022/08/10 09:18:13;;;;;;;6.93;2.13;;;30.90;48.10;;;;;;5053007;28;20524;-56
2022/08/10 09:20:47;;;;;;;2.90;2.70;;;31.50;48.10;;;;;;5052984;28;20473;-56
2022/08/10 09:23:24;;;;;;;2.60;2.20;;;31.70;47.10;;;;;;5052692;28;20488;-57
2022/08/10 09:25:59;;;;;;;2.80;2.30;;;31.70;46.40;;;;;;5052564;28;20482;-56
2022/08/10 09:28:30;;;;;;;2.20;2.00;;;31.40;45.60;;;;;;5054789;28;20429;-57
2022/08/10 09:31:02;;;;;;;3.07;2.30;;;31.70;45.50;;;;;;5056789;28;20825;-57
2022/08/10 09:33:44;;;;;;;3.07;2.67;;;31.90;45.60;;;;;;5056779;28;20437;-57
2022/08/10 09:36:23;;;;;;;3.87;2.40;;;32.00;44.80;;;;;;5056897;28;20425;-56
2022/08/10 09:39:07;;;;;;;2.53;2.33;;;31.90;44.90;;;;;;5056272;28;20429;-56
2022/08/10 09:41:45;;;;;;;2.53;2.10;;;31.80;45.10;;;;;;5056244;28;20453;-57
2022/08/10 09:44:15;;;;;;;2.87;2.10;;;;;;;;;;5056461;28;20479;-56
2022/08/10 09:46:57;;;;;;;2.50;2.30;;;32.20;44.10;;;;;;5056231;28;20536;-58
2022/08/10 09:49:36;;;;;;;2.80;2.30;;;32.40;42.90;;;;;;5056210;28;20424;-56
2022/08/10 09:52:12;;;;;;;5.87;2.30;;;32.60;43.30;;;;;;5055993;28;20429;-56
2022/08/10 09:55:03;;;;;;;2.53;2.33;;;32.80;43.10;;;;;;5056718;28;20512;-56
2022/08/10 09:57:39;;;;;;;2.67;2.43;;;32.70;42.90;;;;;;5056559;28;20495;-56
2022/08/10 10:00:11;;;;;;;3.63;2.00;;;32.40;43.80;;;;;;5056330;28;20495;-56
2022/08/10 10:02:55;;;;;;;2.43;2.23;;;32.00;42.30;;;;;;5055997;28;20521;-56
2022/08/10 10:05:33;;;;;;;1.93;1.83;;;32.20;42.00;;;;;;5055924;28;20511;-57
2022/08/10 10:08:09;;;;;;;3.30;2.30;;;32.70;42.20;;;;;;5055726;28;20433;-56
2022/08/10 10:10:44;;;;;;;3.10;2.37;;;32.80;41.30;;;;;;5056230;28;20477;-57
2022/08/10 10:13:24;;;;;;;2.70;2.50;;;33.00;41.70;;;;;;5055786;28;20921;-56
2022/08/10 10:16:06;;;;;;;4.77;2.40;;;33.20;42.10;;;;;;5055716;28;20425;-56
2022/08/10 10:18:44;;;;;;;3.60;2.23;;;32.80;41.70;;;;;;5056037;28;20455;-56
2022/08/10 10:21:20;;;;;;;3.53;2.30;;;32.80;41.80;;;;;;5055535;28;20991;-56
2022/08/10 10:23:57;;;;;;;3.10;2.20;;;33.10;41.80;;;;;;5055810;28;20413;-56
2022/08/10 10:26:32;;;;;;;2.90;2.20;;;33.40;40.90;;;;;;5055432;28;20460;-56
2022/08/10 10:29:11;;;;;;;2.20;1.90;;;33.10;41.60;;;;;;5055570;28;20420;-56
2022/08/10 10:31:43;;;;;;;2.60;2.20;;;33.00;40.50;;;;;;5055527;28;20469;-56
2022/08/10 10:34:17;;;;;;;2.73;2.20;;;33.20;41.30;;;;;;5055845;28;20471;-57
2022/08/10 10:36:46;;;;;;;2.47;2.13;;;33.00;40.70;;;;;;5055119;28;20433;-56
2022/08/10 10:39:15;;;;;;;22.63;2.53;;;32.90;41.30;;;;;;5055036;28;20532;-56
2022/08/10 10:41:48;;;;;;;3.50;2.17;;;32.80;41.80;;;;;;5055069;28;20949;-56
2022/08/10 10:44:32;;;;;;;3.33;1.90;;;32.80;42.00;;;;;;5055075;28;20461;-56
2022/08/10 10:47:18;;;;;;;6.93;2.13;;;32.50;41.30;;;;;;5054922;28;20576;-56
2022/08/10 10:49:52;;;;;;;2.37;2.17;;;32.30;41.70;;;;;;5054878;28;20795;-56
2022/08/10 10:52:40;;;;;;;2.53;2.30;;;32.50;41.70;;;;;;5054980;28;20429;-56
2022/08/10 10:55:16;;;;;;;3.70;2.33;;;32.70;42.10;;;;;;5054978;28;20906;-56
2022/08/10 10:57:55;;;;;;;3.13;2.20;;;32.50;42.20;;;;;;5055120;28;20461;-56
2022/08/10 11:00:27;;;;;;;3.30;2.13;;;32.70;42.50;;;;;;5055040;28;20542;-56
2022/08/10 11:03:08;;;;;;;2.90;2.10;;;32.70;41.50;;;;;;5055002;28;20512;-56
2022/08/10 11:05:47;;;;;;;2.50;2.30;;;32.50;41.30;;;;;;5054818;28;20547;-56
2022/08/10 11:08:19;;;;;;;2.40;2.20;;;32.90;42.00;;;;;;5054565;28;20452;-56
2022/08/10 11:10:51;;;;;;;3.60;2.30;;;33.10;40.90;;;;;;5054532;28;20476;-56
2022/08/10 11:13:27;;;;;;;2.57;2.37;;;32.80;41.00;;;;;;5054965;28;20791;-56
2022/08/10 11:16:02;;;;;;;4.57;2.30;;;33.20;41.10;;;;;;5054128;28;20476;-56
2022/08/10 11:18:39;;;;;;;5.30;2.20;;;33.80;41.00;;;;;;5054736;28;20516;-56
2022/08/10 11:21:21;;;;;;;2.07;1.90;;;33.90;40.60;;;;;;5054654;28;20552;-56
2022/08/10 11:23:57;;;;;;;3.70;2.37;;;33.30;40.70;;;;;;5054640;28;20464;-56
2022/08/10 11:26:29;;;;;;;2.33;2.13;;;33.40;40.80;;;;;;5054772;28;20405;-56
2022/08/10 11:29:06;;;;;;;4.37;2.27;;;32.70;40.70;;;;;;5054585;28;20410;-56
2022/08/10 11:31:40;;;;;;;3.63;2.50;;;32.70;40.80;;;;;;5054529;28;20477;-56
2022/08/10 11:34:14;;;;;;;4.70;2.47;;;32.70;40.40;;;;;;5054279;28;20891;-56
2022/08/10 11:36:57;;;;;;;3.30;2.03;;;33.00;40.10;;;;;;5054465;28;20457;-56
2022/08/10 11:39:31;;;;;;;4.50;2.00;;;33.10;40.60;;;;;;5053917;28;20449;-56
2022/08/10 11:42:05;;;;;;;3.17;2.20;;;33.10;40.70;;;;;;5054181;28;20560;-56
2022/08/10 11:44:40;;;;;;;2.57;2.07;;;33.40;40.80;;;;;;5054039;28;20923;-57
2022/08/10 11:47:13;;;;;;;3.60;2.10;;;32.50;41.30;;;;;;5053789;28;20879;-56
2022/08/10 11:49:55;;;;;;;2.70;2.50;;;32.70;40.80;;;;;;5053965;28;20430;-57
2022/08/10 11:52:28;;;;;;;2.70;2.50;;;32.50;41.00;;;;;;5053808;28;20469;-56
2022/08/10 11:54:59;;;;;;;2.70;2.43;;;31.90;41.00;;;;;;5054204;28;20779;-57
2022/08/10 11:57:31;;;;;;;3.17;1.90;;;31.90;40.70;;;;;;5054198;28;20501;-57
2022/08/10 11:59:57;;;;;;;2.20;2.00;;;32.20;40.80;;;;;;5053819;28;20469;-57
2022/08/10 12:02:31;;;;;;;3.07;1.97;;;32.40;40.80;;;;;;5053604;28;20456;-57
2022/08/10 12:05:02;;;;;;;2.90;2.00;;;33.20;40.60;;;;;;5053663;28;20887;-57
2022/08/10 12:07:31;;;;;;;2.20;2.00;;;33.30;40.70;;;;;;5053791;28;20525;-57
2022/08/10 12:10:00;;;;;;;3.10;2.70;;;33.30;40.40;;;;;;5053473;28;20461;-57
2022/08/10 12:12:31;;;;;;;3.37;2.40;;;33.30;40.70;;;;;;5053801;28;20449;-57
2022/08/10 12:15:03;;;;;;;3.03;2.10;;;33.60;40.60;;;;;;5053816;28;20426;-57
2022/08/10 12:17:39;;;;;;;2.83;2.40;;;32.40;40.90;;;;;;5053534;28;20430;-57
2022/08/10 12:20:10;;;;;;;2.13;2.00;;;32.40;41.30;;;;;;5053628;28;20469;-57
2022/08/10 12:22:48;;;;;;;2.87;2.53;;;32.70;41.10;;;;;;5053608;28;20790;-57
2022/08/10 12:25:21;;;;;;;3.60;2.20;;;32.20;40.80;;;;;;5053533;28;20554;-60
2022/08/10 12:27:53;;;;;;;2.73;1.90;;;31.70;41.30;;;;;;5053683;28;20465;-57
2022/08/10 12:30:25;;;;;;;3.27;1.80;;;31.80;41.10;;;;;;5053642;28;20465;-57
2022/08/10 12:33:03;;;;;;;2.30;2.10;;;31.50;41.10;;;;;;5053289;28;20440;-57
2022/08/10 12:35:36;;;;;;;2.73;2.30;;;31.60;41.90;;;;;;5053467;28;20444;-57
2022/08/10 12:38:10;;;;;;;2.20;2.00;;;31.90;41.20;;;;;;5053430;28;20456;-57
2022/08/10 12:40:42;;;;;;;2.30;2.10;;;32.40;41.10;;;;;;5053593;28;20568;-57
2022/08/10 12:43:14;;;;;;;4.50;2.43;;;32.80;40.80;;;;;;5053403;28;20793;-57
2022/08/10 12:45:50;;;;;;;2.23;2.00;;;32.90;40.80;;;;;;5053198;28;20821;-57
2022/08/10 12:48:24;;;;;;;2.80;2.20;;;32.20;41.00;;;;;;5052759;28;20835;-57
2022/08/10 12:50:57;;;;;;;2.90;2.30;;;32.40;40.70;;;;;;5053141;28;20822;-57
2022/08/10 12:53:41;;;;;;;4.70;2.10;;;32.50;40.60;;;;;;5052904;28;20437;-57
2022/08/10 12:56:08;;;;;;;2.70;2.20;;;32.40;40.80;;;;;;5053232;28;20463;-57
2022/08/10 12:58:40;;;;;;;3.70;2.40;;;32.70;40.50;;;;;;5052658;28;20539;-57
2022/08/10 13:01:08;;;;;;;2.43;2.23;;;32.70;40.60;;;;;;5052540;28;20473;-57
2022/08/10 13:03:38;;;;;;;2.87;2.23;;;32.60;40.50;;;;;;5051933;28;20832;-57
2022/08/10 13:06:09;;;;;;;2.23;2.03;;;33.10;40.40;;;;;;5053154;28;20488;-57
2022/08/10 13:11:27;;;;;;;4.40;2.30;;;32.80;40.90;;;;;;5053198;28;20802;-57
2022/08/10 13:14:00;;;;;;;2.50;2.30;;;33.00;40.70;;;;;;5052621;28;20436;-57